sensor_id;sensor_type;location;lat;lon;timestamp;P1;durP1;ratioP1;P2;durP2;ratioP2
33844;SDS011;20145;43.118;25.694;2023-12-22T00:00:29;15.82;;;10.88;;
33844;SDS011;20145;43.118;25.694;2023-12-22T00:02:55;19.92;;;11.43;;
33844;SDS011;20145;43.118;25.694;2023-12-22T00:05:21;14.50;;;10.32;;
33844;SDS011;20145;43.118;25.694;2023-12-22T00:07:46;13.55;;;9.90;;
33844;SDS011;20145;43.118;25.694;2023-12-22T00:10:12;12.23;;;9.13;;
33844;SDS011;20145;43.118;25.694;2023-12-22T00:12:37;10.45;;;7.95;;
33844;SDS011;20145;43.118;25.694;2023-12-22T00:15:04;13.23;;;8.88;;
33844;SDS011;20145;43.118;25.694;2023-12-22T00:17:31;9.68;;;6.97;;
33844;SDS011;20145;43.118;25.694;2023-12-22T00:19:56;7.60;;;6.13;;
33844;SDS011;20145;43.118;25.694;2023-12-22T00:22:24;8.27;;;6.85;;
33844;SDS011;20145;43.118;25.694;2023-12-22T00:24:51;6.93;;;5.70;;
33844;SDS011;20145;43.118;25.694;2023-12-22T00:27:17;7.25;;;5.75;;
33844;SDS011;20145;43.118;25.694;2023-12-22T00:29:43;8.60;;;6.20;;
33844;SDS011;20145;43.118;25.694;2023-12-22T00:32:08;7.53;;;6.20;;
33844;SDS011;20145;43.118;25.694;2023-12-22T00:34:35;7.90;;;6.07;;
33844;SDS011;20145;43.118;25.694;2023-12-22T00:37:01;7.43;;;6.18;;
33844;SDS011;20145;43.118;25.694;2023-12-22T00:39:27;7.18;;;6.00;;
33844;SDS011;20145;43.118;25.694;2023-12-22T00:41:52;8.82;;;6.65;;
33844;SDS011;20145;43.118;25.694;2023-12-22T00:44:18;7.15;;;5.97;;
33844;SDS011;20145;43.118;25.694;2023-12-22T00:46:44;8.27;;;6.00;;
33844;SDS011;20145;43.118;25.694;2023-12-22T00:49:09;8.48;;;6.75;;
33844;SDS011;20145;43.118;25.694;2023-12-22T00:51:35;13.35;;;8.32;;
33844;SDS011;20145;43.118;25.694;2023-12-22T00:54:01;16.80;;;10.05;;
33844;SDS011;20145;43.118;25.694;2023-12-22T00:56:26;12.02;;;7.50;;
33844;SDS011;20145;43.118;25.694;2023-12-22T00:58:52;12.20;;;7.50;;
33844;SDS011;20145;43.118;25.694;2023-12-22T01:01:18;11.00;;;7.80;;
33844;SDS011;20145;43.118;25.694;2023-12-22T01:03:44;10.63;;;6.80;;
33844;SDS011;20145;43.118;25.694;2023-12-22T01:06:10;8.57;;;6.55;;
33844;SDS011;20145;43.118;25.694;2023-12-22T01:08:38;9.02;;;6.53;;
33844;SDS011;20145;43.118;25.694;2023-12-22T01:11:04;9.88;;;6.90;;
33844;SDS011;20145;43.118;25.694;2023-12-22T01:13:29;9.75;;;7.07;;
33844;SDS011;20145;43.118;25.694;2023-12-22T01:15:55;8.98;;;7.13;;
33844;SDS011;20145;43.118;25.694;2023-12-22T01:18:21;7.45;;;6.35;;
33844;SDS011;20145;43.118;25.694;2023-12-22T01:20:47;8.45;;;5.95;;
33844;SDS011;20145;43.118;25.694;2023-12-22T01:23:14;9.82;;;5.50;;
33844;SDS011;20145;43.118;25.694;2023-12-22T01:25:40;7.22;;;5.55;;
33844;SDS011;20145;43.118;25.694;2023-12-22T01:28:05;9.30;;;5.72;;
33844;SDS011;20145;43.118;25.694;2023-12-22T01:30:31;7.60;;;5.95;;
33844;SDS011;20145;43.118;25.694;2023-12-22T01:32:57;9.80;;;6.85;;
33844;SDS011;20145;43.118;25.694;2023-12-22T01:35:22;8.80;;;6.00;;
33844;SDS011;20145;43.118;25.694;2023-12-22T01:37:48;9.65;;;5.97;;
33844;SDS011;20145;43.118;25.694;2023-12-22T01:40:14;12.18;;;8.60;;
33844;SDS011;20145;43.118;25.694;2023-12-22T01:42:40;10.38;;;7.10;;
33844;SDS011;20145;43.118;25.694;2023-12-22T01:45:06;8.82;;;6.38;;
33844;SDS011;20145;43.118;25.694;2023-12-22T01:47:32;8.57;;;6.47;;
33844;SDS011;20145;43.118;25.694;2023-12-22T01:49:58;8.75;;;7.00;;
33844;SDS011;20145;43.118;25.694;2023-12-22T01:52:24;9.35;;;6.90;;
33844;SDS011;20145;43.118;25.694;2023-12-22T01:54:51;11.75;;;7.07;;
33844;SDS011;20145;43.118;25.694;2023-12-22T01:57:17;6.65;;;5.88;;
33844;SDS011;20145;43.118;25.694;2023-12-22T01:59:44;5.72;;;4.70;;
33844;SDS011;20145;43.118;25.694;2023-12-22T02:02:11;6.72;;;4.70;;
33844;SDS011;20145;43.118;25.694;2023-12-22T02:04:37;6.07;;;4.55;;
33844;SDS011;20145;43.118;25.694;2023-12-22T02:07:04;8.15;;;4.50;;
33844;SDS011;20145;43.118;25.694;2023-12-22T02:09:34;6.00;;;4.93;;
33844;SDS011;20145;43.118;25.694;2023-12-22T02:12:00;6.40;;;5.22;;
33844;SDS011;20145;43.118;25.694;2023-12-22T02:14:26;6.57;;;4.90;;
33844;SDS011;20145;43.118;25.694;2023-12-22T02:17:02;6.97;;;5.60;;
33844;SDS011;20145;43.118;25.694;2023-12-22T02:19:42;7.15;;;5.18;;
33844;SDS011;20145;43.118;25.694;2023-12-22T02:22:09;6.82;;;4.90;;
33844;SDS011;20145;43.118;25.694;2023-12-22T02:24:37;7.15;;;4.90;;
33844;SDS011;20145;43.118;25.694;2023-12-22T02:32:48;8.73;;;6.40;;
33844;SDS011;20145;43.118;25.694;2023-12-22T02:35:17;8.13;;;6.07;;
33844;SDS011;20145;43.118;25.694;2023-12-22T02:37:46;6.20;;;5.40;;
33844;SDS011;20145;43.118;25.694;2023-12-22T02:40:14;9.77;;;6.88;;
33844;SDS011;20145;43.118;25.694;2023-12-22T02:42:41;7.25;;;5.47;;
33844;SDS011;20145;43.118;25.694;2023-12-22T02:45:12;8.90;;;6.15;;
33844;SDS011;20145;43.118;25.694;2023-12-22T02:47:39;13.52;;;5.93;;
33844;SDS011;20145;43.118;25.694;2023-12-22T02:50:06;9.98;;;6.68;;
33844;SDS011;20145;43.118;25.694;2023-12-22T02:52:32;8.32;;;6.07;;
33844;SDS011;20145;43.118;25.694;2023-12-22T02:54:58;6.00;;;5.00;;
33844;SDS011;20145;43.118;25.694;2023-12-22T02:57:24;5.45;;;4.13;;
33844;SDS011;20145;43.118;25.694;2023-12-22T02:59:49;4.70;;;3.65;;
33844;SDS011;20145;43.118;25.694;2023-12-22T03:02:15;5.50;;;4.88;;
33844;SDS011;20145;43.118;25.694;2023-12-22T03:04:41;6.70;;;4.80;;
33844;SDS011;20145;43.118;25.694;2023-12-22T03:07:06;6.50;;;4.40;;
33844;SDS011;20145;43.118;25.694;2023-12-22T03:09:32;5.45;;;4.57;;
33844;SDS011;20145;43.118;25.694;2023-12-22T03:11:59;6.53;;;5.15;;
33844;SDS011;20145;43.118;25.694;2023-12-22T03:14:31;7.45;;;4.28;;
33844;SDS011;20145;43.118;25.694;2023-12-22T03:17:00;10.15;;;7.63;;
33844;SDS011;20145;43.118;25.694;2023-12-22T03:19:29;7.10;;;5.28;;
33844;SDS011;20145;43.118;25.694;2023-12-22T03:21:55;8.45;;;5.95;;
33844;SDS011;20145;43.118;25.694;2023-12-22T03:24:24;9.48;;;6.75;;
33844;SDS011;20145;43.118;25.694;2023-12-22T03:26:51;11.10;;;7.10;;
33844;SDS011;20145;43.118;25.694;2023-12-22T03:29:18;6.65;;;5.72;;
33844;SDS011;20145;43.118;25.694;2023-12-22T03:31:44;8.63;;;6.25;;
33844;SDS011;20145;43.118;25.694;2023-12-22T03:34:10;8.05;;;6.75;;
33844;SDS011;20145;43.118;25.694;2023-12-22T03:36:36;10.85;;;6.22;;
33844;SDS011;20145;43.118;25.694;2023-12-22T03:39:02;7.07;;;5.70;;
33844;SDS011;20145;43.118;25.694;2023-12-22T03:41:29;7.28;;;5.65;;
33844;SDS011;20145;43.118;25.694;2023-12-22T03:43:55;10.25;;;6.88;;
33844;SDS011;20145;43.118;25.694;2023-12-22T03:46:21;11.15;;;8.00;;
33844;SDS011;20145;43.118;25.694;2023-12-22T03:48:48;14.52;;;9.82;;
33844;SDS011;20145;43.118;25.694;2023-12-22T03:51:15;14.90;;;9.88;;
33844;SDS011;20145;43.118;25.694;2023-12-22T03:53:41;17.23;;;10.68;;
33844;SDS011;20145;43.118;25.694;2023-12-22T03:56:07;13.45;;;9.13;;
33844;SDS011;20145;43.118;25.694;2023-12-22T03:58:34;15.90;;;10.02;;
33844;SDS011;20145;43.118;25.694;2023-12-22T04:01:00;14.98;;;10.73;;
33844;SDS011;20145;43.118;25.694;2023-12-22T04:03:26;14.98;;;9.85;;
33844;SDS011;20145;43.118;25.694;2023-12-22T04:05:51;14.40;;;9.00;;
33844;SDS011;20145;43.118;25.694;2023-12-22T04:08:17;17.77;;;11.82;;
33844;SDS011;20145;43.118;25.694;2023-12-22T04:10:43;17.10;;;11.57;;
33844;SDS011;20145;43.118;25.694;2023-12-22T04:13:09;15.50;;;10.35;;
33844;SDS011;20145;43.118;25.694;2023-12-22T04:15:35;14.75;;;9.95;;
33844;SDS011;20145;43.118;25.694;2023-12-22T04:18:01;17.40;;;11.02;;
33844;SDS011;20145;43.118;25.694;2023-12-22T04:20:26;17.58;;;11.48;;
33844;SDS011;20145;43.118;25.694;2023-12-22T04:22:52;12.77;;;10.00;;
33844;SDS011;20145;43.118;25.694;2023-12-22T04:25:18;17.17;;;10.90;;
33844;SDS011;20145;43.118;25.694;2023-12-22T04:27:43;12.50;;;9.63;;
33844;SDS011;20145;43.118;25.694;2023-12-22T04:30:10;15.07;;;10.65;;
33844;SDS011;20145;43.118;25.694;2023-12-22T04:32:36;11.25;;;8.35;;
33844;SDS011;20145;43.118;25.694;2023-12-22T04:35:02;16.63;;;10.82;;
33844;SDS011;20145;43.118;25.694;2023-12-22T04:37:28;16.00;;;11.60;;
33844;SDS011;20145;43.118;25.694;2023-12-22T04:39:53;17.75;;;11.38;;
33844;SDS011;20145;43.118;25.694;2023-12-22T04:42:19;19.67;;;12.90;;
33844;SDS011;20145;43.118;25.694;2023-12-22T04:44:45;23.98;;;14.80;;
33844;SDS011;20145;43.118;25.694;2023-12-22T04:47:10;26.20;;;16.65;;
33844;SDS011;20145;43.118;25.694;2023-12-22T04:49:38;29.88;;;17.50;;
33844;SDS011;20145;43.118;25.694;2023-12-22T04:52:03;25.15;;;16.25;;
33844;SDS011;20145;43.118;25.694;2023-12-22T04:54:29;26.50;;;16.58;;
33844;SDS011;20145;43.118;25.694;2023-12-22T04:56:55;26.48;;;17.20;;
33844;SDS011;20145;43.118;25.694;2023-12-22T04:59:21;21.65;;;14.95;;
33844;SDS011;20145;43.118;25.694;2023-12-22T05:01:46;25.95;;;15.60;;
33844;SDS011;20145;43.118;25.694;2023-12-22T05:04:12;19.20;;;13.75;;
33844;SDS011;20145;43.118;25.694;2023-12-22T05:06:38;20.67;;;13.40;;
33844;SDS011;20145;43.118;25.694;2023-12-22T05:09:04;37.03;;;22.42;;
33844;SDS011;20145;43.118;25.694;2023-12-22T05:11:30;24.00;;;16.65;;
33844;SDS011;20145;43.118;25.694;2023-12-22T05:13:56;17.67;;;12.05;;
33844;SDS011;20145;43.118;25.694;2023-12-22T05:16:22;18.10;;;12.80;;
33844;SDS011;20145;43.118;25.694;2023-12-22T05:18:47;19.83;;;13.73;;
33844;SDS011;20145;43.118;25.694;2023-12-22T05:21:13;20.13;;;14.10;;
33844;SDS011;20145;43.118;25.694;2023-12-22T05:23:41;17.92;;;13.05;;
33844;SDS011;20145;43.118;25.694;2023-12-22T05:26:07;17.55;;;12.30;;
33844;SDS011;20145;43.118;25.694;2023-12-22T05:28:33;16.95;;;12.20;;
33844;SDS011;20145;43.118;25.694;2023-12-22T05:30:59;18.30;;;12.10;;
33844;SDS011;20145;43.118;25.694;2023-12-22T05:33:24;13.35;;;10.32;;
33844;SDS011;20145;43.118;25.694;2023-12-22T05:35:50;24.13;;;11.77;;
33844;SDS011;20145;43.118;25.694;2023-12-22T05:38:17;11.90;;;10.60;;
33844;SDS011;20145;43.118;25.694;2023-12-22T05:40:42;17.90;;;11.35;;
33844;SDS011;20145;43.118;25.694;2023-12-22T05:43:08;20.02;;;12.82;;
33844;SDS011;20145;43.118;25.694;2023-12-22T05:45:34;19.15;;;13.73;;
33844;SDS011;20145;43.118;25.694;2023-12-22T05:47:59;25.00;;;14.35;;
33844;SDS011;20145;43.118;25.694;2023-12-22T05:50:27;20.98;;;14.13;;
33844;SDS011;20145;43.118;25.694;2023-12-22T05:52:53;19.20;;;12.32;;
33844;SDS011;20145;43.118;25.694;2023-12-22T05:55:19;25.55;;;16.48;;
33844;SDS011;20145;43.118;25.694;2023-12-22T05:57:44;29.20;;;21.05;;
33844;SDS011;20145;43.118;25.694;2023-12-22T06:00:10;25.00;;;16.92;;
33844;SDS011;20145;43.118;25.694;2023-12-22T06:02:37;27.25;;;19.60;;
33844;SDS011;20145;43.118;25.694;2023-12-22T06:05:03;27.95;;;19.75;;
33844;SDS011;20145;43.118;25.694;2023-12-22T06:07:29;30.35;;;19.50;;
33844;SDS011;20145;43.118;25.694;2023-12-22T06:09:56;30.13;;;18.63;;
33844;SDS011;20145;43.118;25.694;2023-12-22T06:12:29;28.65;;;20.60;;
33844;SDS011;20145;43.118;25.694;2023-12-22T06:14:56;32.47;;;20.55;;
33844;SDS011;20145;43.118;25.694;2023-12-22T06:17:21;31.45;;;19.25;;
33844;SDS011;20145;43.118;25.694;2023-12-22T06:19:53;28.63;;;19.45;;
33844;SDS011;20145;43.118;25.694;2023-12-22T06:23:17;37.85;;;22.75;;
33844;SDS011;20145;43.118;25.694;2023-12-22T06:25:43;40.38;;;24.33;;
33844;SDS011;20145;43.118;25.694;2023-12-22T06:28:11;41.78;;;26.45;;
33844;SDS011;20145;43.118;25.694;2023-12-22T06:30:37;41.00;;;25.38;;
33844;SDS011;20145;43.118;25.694;2023-12-22T06:33:03;41.53;;;26.85;;
33844;SDS011;20145;43.118;25.694;2023-12-22T06:35:29;57.70;;;29.50;;
33844;SDS011;20145;43.118;25.694;2023-12-22T06:37:56;52.10;;;34.35;;
33844;SDS011;20145;43.118;25.694;2023-12-22T06:40:26;47.13;;;30.20;;
33844;SDS011;20145;43.118;25.694;2023-12-22T06:42:52;232.43;;;88.68;;
33844;SDS011;20145;43.118;25.694;2023-12-22T06:45:17;98.05;;;47.15;;
33844;SDS011;20145;43.118;25.694;2023-12-22T06:47:43;70.05;;;43.30;;
33844;SDS011;20145;43.118;25.694;2023-12-22T06:50:09;42.53;;;28.63;;
33844;SDS011;20145;43.118;25.694;2023-12-22T06:52:34;37.92;;;25.10;;
33844;SDS011;20145;43.118;25.694;2023-12-22T06:55:00;39.45;;;26.63;;
33844;SDS011;20145;43.118;25.694;2023-12-22T06:57:26;30.30;;;21.90;;
33844;SDS011;20145;43.118;25.694;2023-12-22T06:59:52;38.22;;;24.42;;
33844;SDS011;20145;43.118;25.694;2023-12-22T07:02:18;48.30;;;29.42;;
33844;SDS011;20145;43.118;25.694;2023-12-22T07:05:02;55.75;;;27.98;;
33844;SDS011;20145;43.118;25.694;2023-12-22T07:07:32;50.33;;;28.88;;
33844;SDS011;20145;43.118;25.694;2023-12-22T07:09:57;46.67;;;27.02;;
33844;SDS011;20145;43.118;25.694;2023-12-22T07:12:23;48.33;;;28.30;;
33844;SDS011;20145;43.118;25.694;2023-12-22T07:14:49;46.10;;;29.58;;
33844;SDS011;20145;43.118;25.694;2023-12-22T07:17:14;48.97;;;31.98;;
33844;SDS011;20145;43.118;25.694;2023-12-22T07:19:40;48.78;;;32.00;;
33844;SDS011;20145;43.118;25.694;2023-12-22T07:22:06;44.92;;;29.67;;
33844;SDS011;20145;43.118;25.694;2023-12-22T07:24:32;46.35;;;31.00;;
33844;SDS011;20145;43.118;25.694;2023-12-22T07:26:58;33.75;;;22.48;;
33844;SDS011;20145;43.118;25.694;2023-12-22T07:29:23;16.70;;;10.35;;
33844;SDS011;20145;43.118;25.694;2023-12-22T07:31:49;11.73;;;9.32;;
33844;SDS011;20145;43.118;25.694;2023-12-22T07:34:15;11.85;;;8.60;;
33844;SDS011;20145;43.118;25.694;2023-12-22T07:36:42;12.57;;;8.07;;
33844;SDS011;20145;43.118;25.694;2023-12-22T07:39:08;15.55;;;8.20;;
33844;SDS011;20145;43.118;25.694;2023-12-22T07:41:34;12.18;;;8.13;;
33844;SDS011;20145;43.118;25.694;2023-12-22T07:44:00;12.27;;;7.07;;
33844;SDS011;20145;43.118;25.694;2023-12-22T07:46:26;11.80;;;7.18;;
33844;SDS011;20145;43.118;25.694;2023-12-22T07:48:53;8.43;;;6.28;;
33844;SDS011;20145;43.118;25.694;2023-12-22T07:51:19;7.22;;;5.82;;
33844;SDS011;20145;43.118;25.694;2023-12-22T07:53:45;7.43;;;5.28;;
33844;SDS011;20145;43.118;25.694;2023-12-22T07:56:11;6.25;;;5.60;;
33844;SDS011;20145;43.118;25.694;2023-12-22T07:58:37;7.70;;;6.28;;
33844;SDS011;20145;43.118;25.694;2023-12-22T08:01:03;9.98;;;7.10;;
33844;SDS011;20145;43.118;25.694;2023-12-22T08:03:30;10.23;;;7.28;;
33844;SDS011;20145;43.118;25.694;2023-12-22T08:05:57;28.90;;;17.52;;
33844;SDS011;20145;43.118;25.694;2023-12-22T08:08:22;14.77;;;10.68;;
33844;SDS011;20145;43.118;25.694;2023-12-22T08:10:48;15.27;;;8.13;;
33844;SDS011;20145;43.118;25.694;2023-12-22T08:13:14;10.57;;;8.55;;
33844;SDS011;20145;43.118;25.694;2023-12-22T08:15:39;10.15;;;8.05;;
33844;SDS011;20145;43.118;25.694;2023-12-22T08:18:06;9.65;;;7.40;;
33844;SDS011;20145;43.118;25.694;2023-12-22T08:20:32;9.43;;;7.28;;
33844;SDS011;20145;43.118;25.694;2023-12-22T08:22:57;7.35;;;5.85;;
33844;SDS011;20145;43.118;25.694;2023-12-22T08:25:23;7.28;;;6.22;;
33844;SDS011;20145;43.118;25.694;2023-12-22T08:27:49;10.82;;;7.20;;
33844;SDS011;20145;43.118;25.694;2023-12-22T08:30:14;7.88;;;6.25;;
33844;SDS011;20145;43.118;25.694;2023-12-22T08:32:42;8.13;;;6.35;;
33844;SDS011;20145;43.118;25.694;2023-12-22T08:35:08;6.35;;;5.68;;
33844;SDS011;20145;43.118;25.694;2023-12-22T08:37:34;6.55;;;5.57;;
33844;SDS011;20145;43.118;25.694;2023-12-22T08:39:59;6.75;;;5.72;;
33844;SDS011;20145;43.118;25.694;2023-12-22T08:42:25;10.30;;;5.85;;
33844;SDS011;20145;43.118;25.694;2023-12-22T08:44:51;7.65;;;6.50;;
33844;SDS011;20145;43.118;25.694;2023-12-22T08:47:17;9.38;;;6.22;;
33844;SDS011;20145;43.118;25.694;2023-12-22T08:49:42;7.05;;;5.95;;
33844;SDS011;20145;43.118;25.694;2023-12-22T08:52:08;7.75;;;5.88;;
33844;SDS011;20145;43.118;25.694;2023-12-22T08:54:34;6.20;;;5.60;;
33844;SDS011;20145;43.118;25.694;2023-12-22T08:57:00;6.20;;;5.40;;
33844;SDS011;20145;43.118;25.694;2023-12-22T08:59:29;5.68;;;5.03;;
33844;SDS011;20145;43.118;25.694;2023-12-22T09:01:55;5.93;;;5.28;;
33844;SDS011;20145;43.118;25.694;2023-12-22T09:04:20;9.13;;;5.40;;
33844;SDS011;20145;43.118;25.694;2023-12-22T09:06:50;7.20;;;6.15;;
33844;SDS011;20145;43.118;25.694;2023-12-22T09:09:16;5.53;;;4.80;;
33844;SDS011;20145;43.118;25.694;2023-12-22T09:11:42;7.32;;;5.13;;
33844;SDS011;20145;43.118;25.694;2023-12-22T09:14:07;14.02;;;5.45;;
33844;SDS011;20145;43.118;25.694;2023-12-22T09:16:36;21.95;;;14.25;;
33844;SDS011;20145;43.118;25.694;2023-12-22T09:19:02;9.77;;;8.10;;
33844;SDS011;20145;43.118;25.694;2023-12-22T09:21:29;38.42;;;24.27;;
33844;SDS011;20145;43.118;25.694;2023-12-22T09:23:54;33.00;;;21.30;;
33844;SDS011;20145;43.118;25.694;2023-12-22T09:26:20;10.65;;;6.85;;
33844;SDS011;20145;43.118;25.694;2023-12-22T09:28:47;6.25;;;4.82;;
33844;SDS011;20145;43.118;25.694;2023-12-22T09:31:13;5.95;;;4.07;;
33844;SDS011;20145;43.118;25.694;2023-12-22T09:33:39;10.30;;;4.97;;
33844;SDS011;20145;43.118;25.694;2023-12-22T09:36:06;15.50;;;9.48;;
33844;SDS011;20145;43.118;25.694;2023-12-22T09:38:32;24.15;;;12.52;;
33844;SDS011;20145;43.118;25.694;2023-12-22T09:40:58;14.57;;;10.63;;
33844;SDS011;20145;43.118;25.694;2023-12-22T09:43:24;12.52;;;8.32;;
33844;SDS011;20145;43.118;25.694;2023-12-22T09:45:50;6.35;;;5.13;;
33844;SDS011;20145;43.118;25.694;2023-12-22T09:48:17;16.83;;;11.38;;
33844;SDS011;20145;43.118;25.694;2023-12-22T09:50:46;6.70;;;4.50;;
33844;SDS011;20145;43.118;25.694;2023-12-22T09:53:12;58.35;;;25.50;;
33844;SDS011;20145;43.118;25.694;2023-12-22T09:55:40;341.33;;;138.82;;
33844;SDS011;20145;43.118;25.694;2023-12-22T09:58:11;129.15;;;56.00;;
33844;SDS011;20145;43.118;25.694;2023-12-22T10:00:37;58.53;;;39.45;;
33844;SDS011;20145;43.118;25.694;2023-12-22T10:03:07;5.13;;;4.63;;
33844;SDS011;20145;43.118;25.694;2023-12-22T10:05:35;4.43;;;3.30;;
33844;SDS011;20145;43.118;25.694;2023-12-22T10:08:02;2.90;;;2.70;;
33844;SDS011;20145;43.118;25.694;2023-12-22T10:10:30;5.95;;;3.05;;
33844;SDS011;20145;43.118;25.694;2023-12-22T10:12:56;4.55;;;3.78;;
33844;SDS011;20145;43.118;25.694;2023-12-22T10:15:23;3.78;;;3.47;;
33844;SDS011;20145;43.118;25.694;2023-12-22T10:17:54;15.93;;;9.90;;
33844;SDS011;20145;43.118;25.694;2023-12-22T10:20:20;23.60;;;14.27;;
33844;SDS011;20145;43.118;25.694;2023-12-22T10:22:46;16.92;;;10.88;;
33844;SDS011;20145;43.118;25.694;2023-12-22T10:25:14;19.73;;;11.95;;
33844;SDS011;20145;43.118;25.694;2023-12-22T10:27:42;14.43;;;10.23;;
33844;SDS011;20145;43.118;25.694;2023-12-22T10:30:08;19.90;;;12.88;;
33844;SDS011;20145;43.118;25.694;2023-12-22T10:32:41;17.90;;;11.77;;
33844;SDS011;20145;43.118;25.694;2023-12-22T10:35:08;15.73;;;9.95;;
33844;SDS011;20145;43.118;25.694;2023-12-22T10:37:34;13.18;;;7.72;;
33844;SDS011;20145;43.118;25.694;2023-12-22T10:40:00;12.95;;;8.40;;
33844;SDS011;20145;43.118;25.694;2023-12-22T10:42:29;16.73;;;10.57;;
33844;SDS011;20145;43.118;25.694;2023-12-22T10:44:55;9.30;;;4.65;;
33844;SDS011;20145;43.118;25.694;2023-12-22T10:47:21;5.13;;;3.67;;
33844;SDS011;20145;43.118;25.694;2023-12-22T10:49:48;3.85;;;3.22;;
33844;SDS011;20145;43.118;25.694;2023-12-22T10:52:17;5.30;;;3.45;;
33844;SDS011;20145;43.118;25.694;2023-12-22T10:54:44;3.75;;;3.17;;
33844;SDS011;20145;43.118;25.694;2023-12-22T10:57:20;2.78;;;2.28;;
33844;SDS011;20145;43.118;25.694;2023-12-22T10:59:56;6.25;;;3.30;;
33844;SDS011;20145;43.118;25.694;2023-12-22T11:02:27;2.58;;;2.30;;
33844;SDS011;20145;43.118;25.694;2023-12-22T11:04:57;2.63;;;2.10;;
33844;SDS011;20145;43.118;25.694;2023-12-22T11:07:30;1.80;;;1.70;;
33844;SDS011;20145;43.118;25.694;2023-12-22T11:10:02;2.58;;;2.38;;
33844;SDS011;20145;43.118;25.694;2023-12-22T11:12:31;4.07;;;2.63;;
33844;SDS011;20145;43.118;25.694;2023-12-22T11:14:58;3.80;;;2.75;;
33844;SDS011;20145;43.118;25.694;2023-12-22T11:17:26;5.95;;;3.67;;
33844;SDS011;20145;43.118;25.694;2023-12-22T11:19:54;4.40;;;3.08;;
33844;SDS011;20145;43.118;25.694;2023-12-22T11:22:21;4.20;;;2.35;;
33844;SDS011;20145;43.118;25.694;2023-12-22T11:24:48;2.47;;;2.15;;
33844;SDS011;20145;43.118;25.694;2023-12-22T11:27:16;19.92;;;3.45;;
33844;SDS011;20145;43.118;25.694;2023-12-22T11:29:45;3.47;;;2.95;;
33844;SDS011;20145;43.118;25.694;2023-12-22T11:32:17;2.53;;;2.33;;
33844;SDS011;20145;43.118;25.694;2023-12-22T11:34:45;1.90;;;1.50;;
33844;SDS011;20145;43.118;25.694;2023-12-22T11:37:12;0.90;;;0.90;;
33844;SDS011;20145;43.118;25.694;2023-12-22T11:39:39;2.83;;;2.22;;
33844;SDS011;20145;43.118;25.694;2023-12-22T11:42:06;1.70;;;1.60;;
33844;SDS011;20145;43.118;25.694;2023-12-22T11:44:35;5.13;;;4.00;;
33844;SDS011;20145;43.118;25.694;2023-12-22T11:47:07;2.28;;;2.08;;
33844;SDS011;20145;43.118;25.694;2023-12-22T11:49:34;3.90;;;3.60;;
33844;SDS011;20145;43.118;25.694;2023-12-22T11:52:11;4.35;;;3.95;;
33844;SDS011;20145;43.118;25.694;2023-12-22T11:54:50;6.78;;;2.70;;
33844;SDS011;20145;43.118;25.694;2023-12-22T11:57:32;5.00;;;3.85;;
33844;SDS011;20145;43.118;25.694;2023-12-22T12:00:09;6.50;;;5.88;;
33844;SDS011;20145;43.118;25.694;2023-12-22T12:02:56;4.38;;;3.88;;
33844;SDS011;20145;43.118;25.694;2023-12-22T12:05:22;9.30;;;4.20;;
33844;SDS011;20145;43.118;25.694;2023-12-22T12:07:48;4.55;;;3.85;;
33844;SDS011;20145;43.118;25.694;2023-12-22T12:13:15;14.80;;;7.63;;
33844;SDS011;20145;43.118;25.694;2023-12-22T12:15:47;12.25;;;8.95;;
33844;SDS011;20145;43.118;25.694;2023-12-22T12:18:12;37.92;;;24.45;;
33844;SDS011;20145;43.118;25.694;2023-12-22T12:20:40;19.13;;;11.43;;
33844;SDS011;20145;43.118;25.694;2023-12-22T12:23:05;25.48;;;13.23;;
33844;SDS011;20145;43.118;25.694;2023-12-22T12:25:32;20.75;;;10.43;;
33844;SDS011;20145;43.118;25.694;2023-12-22T12:28:01;26.58;;;15.40;;
33844;SDS011;20145;43.118;25.694;2023-12-22T12:30:31;35.45;;;18.88;;
33844;SDS011;20145;43.118;25.694;2023-12-22T12:33:05;20.45;;;10.63;;
33844;SDS011;20145;43.118;25.694;2023-12-22T12:35:36;68.97;;;32.33;;
33844;SDS011;20145;43.118;25.694;2023-12-22T12:38:03;17.25;;;10.05;;
33844;SDS011;20145;43.118;25.694;2023-12-22T12:40:29;26.92;;;11.88;;
33844;SDS011;20145;43.118;25.694;2023-12-22T12:42:57;6.55;;;4.38;;
33844;SDS011;20145;43.118;25.694;2023-12-22T12:45:27;18.35;;;8.40;;
33844;SDS011;20145;43.118;25.694;2023-12-22T12:47:57;15.20;;;7.47;;
33844;SDS011;20145;43.118;25.694;2023-12-22T12:50:28;6.57;;;4.03;;
33844;SDS011;20145;43.118;25.694;2023-12-22T12:52:56;10.30;;;6.22;;
33844;SDS011;20145;43.118;25.694;2023-12-22T12:55:23;5.50;;;3.50;;
33844;SDS011;20145;43.118;25.694;2023-12-22T12:57:50;38.92;;;15.38;;
33844;SDS011;20145;43.118;25.694;2023-12-22T13:00:17;10.70;;;5.90;;
33844;SDS011;20145;43.118;25.694;2023-12-22T13:02:50;7.28;;;3.45;;
33844;SDS011;20145;43.118;25.694;2023-12-22T13:05:22;11.73;;;5.05;;
33844;SDS011;20145;43.118;25.694;2023-12-22T13:07:49;2.65;;;2.00;;
33844;SDS011;20145;43.118;25.694;2023-12-22T13:12:47;6.03;;;3.33;;
33844;SDS011;20145;43.118;25.694;2023-12-22T13:15:15;9.82;;;4.50;;
33844;SDS011;20145;43.118;25.694;2023-12-22T13:17:41;7.32;;;3.40;;
33844;SDS011;20145;43.118;25.694;2023-12-22T13:20:09;15.80;;;7.55;;
33844;SDS011;20145;43.118;25.694;2023-12-22T13:22:36;12.73;;;6.75;;
33844;SDS011;20145;43.118;25.694;2023-12-22T13:25:02;5.35;;;3.72;;
33844;SDS011;20145;43.118;25.694;2023-12-22T13:27:29;4.28;;;2.30;;
33844;SDS011;20145;43.118;25.694;2023-12-22T13:29:54;5.32;;;2.88;;
33844;SDS011;20145;43.118;25.694;2023-12-22T13:32:21;6.55;;;3.15;;
33844;SDS011;20145;43.118;25.694;2023-12-22T13:34:51;16.33;;;10.27;;
33844;SDS011;20145;43.118;25.694;2023-12-22T13:37:21;10.52;;;6.68;;
33844;SDS011;20145;43.118;25.694;2023-12-22T13:39:47;5.72;;;3.63;;
33844;SDS011;20145;43.118;25.694;2023-12-22T13:42:15;8.23;;;4.13;;
33844;SDS011;20145;43.118;25.694;2023-12-22T13:44:46;11.45;;;7.13;;
33844;SDS011;20145;43.118;25.694;2023-12-22T13:47:17;7.68;;;5.20;;
33844;SDS011;20145;43.118;25.694;2023-12-22T13:49:44;9.40;;;5.78;;
33844;SDS011;20145;43.118;25.694;2023-12-22T13:52:43;5.97;;;4.22;;
33844;SDS011;20145;43.118;25.694;2023-12-22T13:55:09;12.65;;;6.60;;
33844;SDS011;20145;43.118;25.694;2023-12-22T13:57:40;9.55;;;5.40;;
33844;SDS011;20145;43.118;25.694;2023-12-22T14:02:49;25.60;;;14.20;;
33844;SDS011;20145;43.118;25.694;2023-12-22T14:05:17;7.25;;;4.60;;
33844;SDS011;20145;43.118;25.694;2023-12-22T14:07:43;15.40;;;7.05;;
33844;SDS011;20145;43.118;25.694;2023-12-22T14:10:10;15.10;;;6.65;;
33844;SDS011;20145;43.118;25.694;2023-12-22T14:12:36;9.73;;;5.45;;
33844;SDS011;20145;43.118;25.694;2023-12-22T14:15:09;13.23;;;6.75;;
33844;SDS011;20145;43.118;25.694;2023-12-22T14:17:36;14.48;;;8.00;;
33844;SDS011;20145;43.118;25.694;2023-12-22T14:20:02;21.88;;;9.57;;
33844;SDS011;20145;43.118;25.694;2023-12-22T14:22:35;15.02;;;8.00;;
33844;SDS011;20145;43.118;25.694;2023-12-22T14:25:01;27.13;;;13.13;;
33844;SDS011;20145;43.118;25.694;2023-12-22T14:27:26;14.60;;;6.60;;
33844;SDS011;20145;43.118;25.694;2023-12-22T14:29:52;18.52;;;7.65;;
33844;SDS011;20145;43.118;25.694;2023-12-22T14:32:18;18.98;;;10.10;;
33844;SDS011;20145;43.118;25.694;2023-12-22T14:34:47;18.75;;;11.20;;
33844;SDS011;20145;43.118;25.694;2023-12-22T14:37:13;15.60;;;9.88;;